Time;durP1;ratioP1;P1;durP2;ratioP2;P2;SDS_P1;SDS_P2;PMS_P1;PMS_P2;Temp;Humidity;BMP_temperature;BMP_pressure;BME280_temperature;BME280_humidity;BME280_pressure;Samples;Min_cycle;Max_cycle;Signal;HPM_P1;HPM_P2
2021/03/16 00:00:05;;;;;;;11.15;3.42;;;9.60;71.80;;;;;;5048316;28;20041;-65
2021/03/16 00:02:31;;;;;;;22.70;3.70;;;9.60;71.90;;;;;;5048961;28;20493;-65
2021/03/16 00:04:57;;;;;;;18.00;6.03;;;9.60;72.30;;;;;;5051037;28;20033;-65
2021/03/16 00:07:22;;;;;;;22.00;4.22;;;9.60;72.10;;;;;;5067586;28;20423;-65
2021/03/16 00:09:48;;;;;;;13.93;3.47;;;9.60;72.00;;;;;;5049191;28;20513;-65
2021/03/16 00:12:14;;;;;;;10.45;2.58;;;9.60;72.20;;;;;;5053097;28;20029;-65
2021/03/16 00:14:39;;;;;;;19.92;4.50;;;9.60;72.20;;;;;;5051552;28;20059;-65
2021/03/16 00:17:05;;;;;;;15.38;3.83;;;9.70;72.30;;;;;;5056196;28;20222;-66
2021/03/16 00:19:31;;;;;;;13.68;2.58;;;9.70;71.80;;;;;;5055474;28;20066;-65
2021/03/16 00:21:56;;;;;;;20.33;3.90;;;9.60;71.80;;;;;;5045601;28;20052;-65
2021/03/16 00:24:22;;;;;;;15.50;3.08;;;9.60;71.90;;;;;;5049490;28;20029;-65
2021/03/16 00:26:48;;;;;;;17.50;3.28;;;9.50;72.40;;;;;;5053250;28;20033;-65
2021/03/16 00:29:14;;;;;;;26.75;4.43;;;9.60;71.90;;;;;;5051852;28;20498;-65
2021/03/16 00:31:40;;;;;;;21.38;3.25;;;9.50;72.40;;;;;;5053329;28;20045;-66
2021/03/16 00:34:05;;;;;;;11.88;4.32;;;9.50;72.20;;;;;;5041081;28;20040;-66
2021/03/16 00:36:33;;;;;;;12.95;2.63;;;9.40;72.20;;;;;;5061264;28;20558;-66
2021/03/16 00:38:59;;;;;;;21.08;3.88;;;9.50;72.10;;;;;;5048137;28;20029;-65
2021/03/16 00:41:24;;;;;;;15.80;3.30;;;9.50;72.30;;;;;;5061924;28;20029;-65
2021/03/16 00:43:52;;;;;;;15.27;2.95;;;9.60;72.20;;;;;;5062769;28;20044;-65
2021/03/16 00:46:19;;;;;;;17.73;5.25;;;9.50;72.60;;;;;;5045342;28;20427;-64
2021/03/16 00:48:44;;;;;;;16.13;3.22;;;9.60;72.10;;;;;;5058136;28;20495;-65
2021/03/16 00:51:10;;;;;;;14.77;3.60;;;9.60;72.30;;;;;;5046241;28;20041;-65
2021/03/16 00:53:36;;;;;;;16.88;3.15;;;9.60;72.20;;;;;;5046842;28;20516;-65
2021/03/16 00:56:02;;;;;;;14.65;3.30;;;9.60;71.90;;;;;;5060111;28;20041;-65
2021/03/16 00:58:28;;;;;;;16.48;4.40;;;9.60;71.70;;;;;;5032535;28;20044;-65
2021/03/16 01:00:55;;;;;;;14.35;4.80;;;9.60;72.10;;;;;;5061042;28;20052;-65
2021/03/16 01:03:21;;;;;;;19.02;4.05;;;9.60;70.90;;;;;;5047103;28;20036;-65
2021/03/16 01:05:48;;;;;;;12.30;2.95;;;9.50;70.90;;;;;;5048661;28;20036;-64
2021/03/16 01:08:17;;;;;;;13.80;3.10;;;9.50;70.60;;;;;;5059258;28;20093;-65
2021/03/16 01:10:44;;;;;;;14.73;3.65;;;9.40;70.20;;;;;;5048632;28;20120;-65
2021/03/16 01:13:10;;;;;;;15.93;3.53;;;9.40;70.60;;;;;;5048986;28;20057;-65
2021/03/16 01:15:36;;;;;;;22.52;3.90;;;9.30;70.30;;;;;;5049135;28;20036;-65
2021/03/16 01:18:01;;;;;;;11.73;3.63;;;9.30;70.40;;;;;;5058344;28;20048;-65
2021/03/16 01:20:28;;;;;;;12.65;2.88;;;9.30;69.70;;;;;;5063683;28;20476;-65
2021/03/16 01:22:54;;;;;;;13.00;3.10;;;9.20;69.70;;;;;;5055313;28;20029;-65
2021/03/16 01:25:20;;;;;;;11.77;2.35;;;9.30;70.00;;;;;;5052672;28;20086;-65
2021/03/16 01:27:46;;;;;;;13.25;3.67;;;9.30;69.90;;;;;;5051879;28;20382;-66
2021/03/16 01:30:13;;;;;;;14.32;2.40;;;9.50;69.50;;;;;;5054559;28;20471;-65
2021/03/16 01:32:39;;;;;;;14.20;3.78;;;9.40;68.90;;;;;;5069262;28;20032;-66
2021/03/16 01:35:08;;;;;;;12.45;2.90;;;9.40;69.50;;;;;;5053827;28;20471;-65
2021/03/16 01:37:35;;;;;;;11.98;2.42;;;9.40;69.50;;;;;;5033164;28;20094;-65
2021/03/16 01:40:00;;;;;;;15.52;3.25;;;9.40;69.50;;;;;;5049317;28;20528;-65
2021/03/16 01:42:26;;;;;;;14.52;3.85;;;9.50;69.20;;;;;;5052917;28;20045;-66
2021/03/16 01:44:51;;;;;;;16.33;4.55;;;9.50;69.50;;;;;;5052374;28;20098;-66
2021/03/16 01:47:19;;;;;;;19.83;2.88;;;9.50;69.60;;;;;;5082388;28;20094;-66
2021/03/16 01:49:45;;;;;;;12.82;4.35;;;9.50;70.10;;;;;;5070613;28;20025;-66
2021/03/16 01:52:11;;;;;;;20.02;3.33;;;9.60;69.70;;;;;;5060410;28;20142;-66
2021/03/16 01:54:41;;;;;;;13.52;2.83;;;9.60;69.80;;;;;;5058661;28;20041;-65
2021/03/16 01:57:10;;;;;;;15.02;3.20;;;9.60;69.90;;;;;;5047489;28;20035;-66
2021/03/16 01:59:35;;;;;;;13.85;2.92;;;9.60;69.80;;;;;;5045240;28;20130;-66
2021/03/16 02:02:02;;;;;;;15.02;3.55;;;9.70;69.70;;;;;;5050125;28;20056;-66
2021/03/16 02:04:27;;;;;;;16.23;3.30;;;9.70;69.50;;;;;;5060645;28;20119;-67
2021/03/16 02:07:02;;;;;;;12.63;2.65;;;9.70;69.30;;;;;;5057191;28;20033;-66
2021/03/16 02:09:31;;;;;;;14.25;3.28;;;9.60;69.80;;;;;;5057429;28;20117;-66
2021/03/16 02:12:29;;;;;;;12.32;2.35;;;9.60;68.90;;;;;;5056857;28;20112;-66
2021/03/16 02:15:00;;;;;;;12.07;2.70;;;9.60;68.90;;;;;;5061696;28;20055;-66
2021/03/16 02:17:35;;;;;;;15.20;3.42;;;9.50;69.20;;;;;;5051158;28;20024;-66
2021/03/16 02:20:20;;;;;;;14.20;2.97;;;9.50;69.30;;;;;;5050332;28;20037;-66
2021/03/16 02:22:48;;;;;;;10.73;2.75;;;9.50;69.50;;;;;;5047003;28;20083;-66
2021/03/16 02:25:34;;;;;;;15.68;2.80;;;9.50;69.60;;;;;;5065351;28;20063;-66
2021/03/16 02:28:17;;;;;;;14.95;4.45;;;9.60;69.40;;;;;;5066229;28;20466;-66
2021/03/16 02:30:45;;;;;;;11.57;2.92;;;9.70;69.00;;;;;;5062680;28;20033;-66
2021/03/16 02:33:13;;;;;;;16.20;3.47;;;9.70;68.60;;;;;;5051333;28;20124;-65
2021/03/16 02:35:41;;;;;;;13.32;3.53;;;9.60;68.80;;;;;;5066102;28;20553;-66
2021/03/16 02:38:09;;;;;;;13.70;2.35;;;9.60;68.60;;;;;;5039395;28;20030;-66
2021/03/16 02:40:36;;;;;;;10.25;2.63;;;9.60;68.40;;;;;;5050265;28;20039;-66
2021/03/16 02:43:03;;;;;;;21.30;3.20;;;9.60;68.40;;;;;;5049369;28;20029;-66
2021/03/16 02:45:31;;;;;;;13.98;3.03;;;9.60;68.70;;;;;;5047763;28;20025;-66
2021/03/16 02:47:58;;;;;;;18.35;3.67;;;9.70;68.50;;;;;;5048408;28;20549;-66
2021/03/16 02:50:25;;;;;;;16.52;3.40;;;9.60;68.50;;;;;;5055272;28;20467;-66
2021/03/16 02:52:53;;;;;;;13.63;2.22;;;9.60;68.60;;;;;;5061788;28;20029;-65
2021/03/16 02:55:20;;;;;;;14.00;2.97;;;9.60;68.40;;;;;;5039073;28;20132;-66
2021/03/16 02:57:47;;;;;;;14.48;2.72;;;9.60;68.50;;;;;;5044371;28;20053;-66
2021/03/16 03:00:15;;;;;;;16.58;3.45;;;9.60;68.70;;;;;;5048699;28;20045;-66
2021/03/16 03:02:45;;;;;;;12.70;2.88;;;9.60;68.70;;;;;;5049864;28;20021;-65
2021/03/16 03:05:12;;;;;;;11.25;2.58;;;9.60;68.80;;;;;;5065422;28;20368;-65
2021/03/16 03:07:40;;;;;;;11.55;2.60;;;9.60;68.90;;;;;;5046523;28;20056;-65
2021/03/16 03:10:07;;;;;;;12.65;2.03;;;9.60;69.50;;;;;;5046195;28;20514;-65
2021/03/16 03:12:32;;;;;;;11.10;2.60;;;9.60;69.30;;;;;;5049305;28;20091;-66
2021/03/16 03:14:59;;;;;;;12.32;3.28;;;9.60;69.00;;;;;;5048063;28;20041;-65
2021/03/16 03:17:24;;;;;;;10.80;2.67;;;9.60;69.00;;;;;;5047903;28;20558;-65
2021/03/16 03:19:50;;;;;;;18.42;4.13;;;9.60;68.90;;;;;;5061272;28;20483;-66
2021/03/16 03:22:23;;;;;;;21.42;3.42;;;9.60;69.00;;;;;;5048177;28;20437;-66
2021/03/16 03:24:55;;;;;;;9.75;3.25;;;9.60;68.90;;;;;;5070130;28;20146;-65
2021/03/16 03:27:23;;;;;;;16.80;2.55;;;9.60;69.50;;;;;;5050418;28;20049;-65
2021/03/16 03:29:50;;;;;;;17.65;2.95;;;9.70;69.00;;;;;;5056446;28;20040;-66
2021/03/16 03:32:21;;;;;;;15.38;2.97;;;9.70;68.90;;;;;;5057886;28;20305;-66
2021/03/16 03:34:47;;;;;;;15.65;2.78;;;9.70;68.80;;;;;;5053575;28;20025;-65
2021/03/16 03:37:15;;;;;;;12.77;3.75;;;9.60;69.20;;;;;;5049816;28;20068;-66
2021/03/16 03:39:42;;;;;;;17.20;3.28;;;9.60;69.30;;;;;;5049006;28;20029;-65
2021/03/16 03:42:08;;;;;;;11.80;2.53;;;9.60;69.20;;;;;;5068503;28;20044;-65
2021/03/16 03:44:35;;;;;;;10.65;2.33;;;9.70;69.20;;;;;;5050140;28;20095;-65
2021/03/16 03:47:02;;;;;;;12.70;2.20;;;9.80;68.90;;;;;;5046937;28;20021;-66
2021/03/16 03:49:29;;;;;;;11.40;3.53;;;9.90;68.60;;;;;;5049906;28;20043;-65
2021/03/16 03:51:57;;;;;;;21.20;2.83;;;9.90;68.40;;;;;;5055346;28;20020;-66
2021/03/16 03:54:23;;;;;;;10.23;2.50;;;9.90;68.30;;;;;;5060278;28;20159;-66
2021/03/16 03:56:50;;;;;;;7.88;2.72;;;9.90;68.50;;;;;;5050050;28;20032;-65
2021/03/16 03:59:18;;;;;;;11.40;2.58;;;9.80;68.30;;;;;;5059484;28;20131;-65
2021/03/16 04:01:44;;;;;;;9.27;2.42;;;9.80;68.30;;;;;;5048695;28;20035;-65
2021/03/16 04:04:10;;;;;;;12.27;2.08;;;9.70;68.40;;;;;;5049201;28;20086;-65
2021/03/16 04:06:36;;;;;;;11.02;2.53;;;9.70;68.30;;;;;;5049830;28;20024;-65
2021/03/16 04:09:03;;;;;;;10.18;2.00;;;9.60;68.50;;;;;;5051037;28;20032;-65
2021/03/16 04:11:29;;;;;;;10.70;1.98;;;9.60;68.80;;;;;;5056457;28;20071;-64
2021/03/16 04:13:55;;;;;;;12.07;2.13;;;9.70;68.70;;;;;;5039806;28;20033;-65
2021/03/16 04:16:21;;;;;;;12.27;2.65;;;9.60;69.10;;;;;;5048616;28;20459;-66
2021/03/16 04:18:48;;;;;;;10.38;2.40;;;9.70;68.70;;;;;;5051781;28;20531;-65
2021/03/16 04:21:15;;;;;;;15.00;2.83;;;9.70;68.60;;;;;;5037532;28;20491;-66
2021/03/16 04:23:42;;;;;;;19.98;2.88;;;9.80;68.70;;;;;;5054611;28;20523;-65
2021/03/16 04:26:07;;;;;;;12.93;2.35;;;9.70;68.80;;;;;;5054177;28;20128;-65
2021/03/16 04:28:33;;;;;;;12.68;3.10;;;9.70;69.10;;;;;;5049518;28;20104;-65
2021/03/16 04:30:59;;;;;;;7.90;3.25;;;9.60;69.40;;;;;;5054248;28;20037;-65
2021/03/16 04:33:24;;;;;;;17.83;3.78;;;9.70;69.40;;;;;;5069018;28;20039;-65
2021/03/16 04:35:50;;;;;;;11.43;2.97;;;9.60;69.50;;;;;;5058263;28;20028;-65
2021/03/16 04:38:16;;;;;;;11.23;2.97;;;9.60;69.80;;;;;;5050220;28;20033;-65
2021/03/16 04:40:43;;;;;;;8.23;2.60;;;9.60;69.70;;;;;;5044979;28;20046;-66
2021/03/16 04:43:09;;;;;;;14.55;2.40;;;9.60;70.00;;;;;;5065113;28;20047;-66
2021/03/16 04:45:35;;;;;;;31.83;4.43;;;9.60;70.20;;;;;;5066149;28;20028;-66
2021/03/16 04:48:01;;;;;;;16.85;5.18;;;9.60;70.40;;;;;;5059449;28;20703;-66
2021/03/16 04:50:27;;;;;;;11.93;2.47;;;9.60;70.50;;;;;;5052310;28;20040;-65
2021/03/16 04:52:53;;;;;;;17.17;3.88;;;9.60;70.60;;;;;;5052900;28;20037;-65
2021/03/16 04:55:19;;;;;;;16.10;3.65;;;9.50;70.80;;;;;;5058686;28;20428;-65
2021/03/16 04:57:44;;;;;;;9.20;2.50;;;9.40;71.10;;;;;;5053633;28;20026;-65
2021/03/16 05:00:11;;;;;;;13.82;3.60;;;9.40;71.60;;;;;;5059903;28;20861;-65
2021/03/16 05:02:36;;;;;;;16.38;3.45;;;9.40;71.80;;;;;;5053423;28;20067;-66
2021/03/16 05:05:04;;;;;;;18.42;3.80;;;9.30;72.30;;;;;;5055461;28;20053;-65
2021/03/16 05:07:30;;;;;;;17.92;3.75;;;9.40;72.00;;;;;;5051280;28;20036;-66
2021/03/16 05:09:55;;;;;;;17.30;4.65;;;9.40;72.10;;;;;;5064322;28;20474;-66
2021/03/16 05:12:21;;;;;;;15.45;2.88;;;9.40;72.10;;;;;;5050678;28;20503;-65
2021/03/16 05:14:47;;;;;;;11.93;3.10;;;9.50;72.00;;;;;;5056042;28;20037;-65
2021/03/16 05:17:13;;;;;;;15.65;3.22;;;9.50;71.80;;;;;;5046352;28;20716;-65
2021/03/16 05:19:39;;;;;;;19.52;4.10;;;9.50;71.80;;;;;;5063736;28;20054;-65
2021/03/16 05:22:05;;;;;;;15.45;3.63;;;9.50;71.90;;;;;;5041104;28;20123;-65
2021/03/16 05:24:31;;;;;;;11.35;3.45;;;9.50;71.80;;;;;;5061211;28;20032;-65
2021/03/16 05:26:57;;;;;;;17.30;3.35;;;9.50;71.70;;;;;;5055870;28;20036;-66
2021/03/16 05:29:22;;;;;;;12.15;3.45;;;9.50;71.50;;;;;;5060508;28;20021;-66
2021/03/16 05:31:48;;;;;;;15.90;4.28;;;9.50;71.50;;;;;;5051970;28;20404;-65
2021/03/16 05:34:14;;;;;;;14.68;3.33;;;9.50;71.60;;;;;;5051662;28;20102;-66
2021/03/16 05:36:40;;;;;;;16.77;3.78;;;9.50;71.60;;;;;;5064699;28;20033;-66
2021/03/16 05:39:06;;;;;;;14.13;2.47;;;9.40;71.60;;;;;;5054958;28;20456;-65
2021/03/16 05:41:32;;;;;;;21.52;3.72;;;9.40;71.80;;;;;;5077821;28;20029;-66
2021/03/16 05:44:00;;;;;;;11.50;3.03;;;9.40;72.00;;;;;;5060349;28;20021;-66
2021/03/16 05:46:27;;;;;;;16.25;3.80;;;9.40;72.10;;;;;;5063563;28;20094;-65
2021/03/16 05:48:54;;;;;;;19.33;3.63;;;9.40;72.20;;;;;;5055288;28;20029;-66
2021/03/16 05:51:20;;;;;;;12.57;2.78;;;9.40;72.30;;;;;;5052002;28;20602;-65
2021/03/16 05:53:49;;;;;;;14.85;3.53;;;9.40;72.30;;;;;;5067507;28;20047;-65
2021/03/16 05:56:15;;;;;;;11.60;2.95;;;9.40;72.50;;;;;;5053980;28;20037;-65
2021/03/16 05:58:42;;;;;;;13.50;2.83;;;9.40;72.50;;;;;;5053395;28;20064;-66
2021/03/16 06:01:09;;;;;;;15.75;3.42;;;9.50;72.60;;;;;;5058635;28;20115;-66
2021/03/16 06:03:35;;;;;;;22.75;4.13;;;9.50;72.60;;;;;;5074975;28;20395;-65
2021/03/16 06:06:00;;;;;;;13.38;3.15;;;9.50;72.50;;;;;;5084384;28;20489;-65
2021/03/16 06:08:26;;;;;;;26.45;5.28;;;10.10;72.80;;;;;;5063924;28;20075;-66
2021/03/16 06:10:52;;;;;;;19.23;3.38;;;9.60;72.50;;;;;;5051520;28;20029;-66
2021/03/16 06:13:18;;;;;;;14.65;3.58;;;9.60;72.50;;;;;;5047698;28;20044;-65
2021/03/16 06:15:43;;;;;;;14.88;3.33;;;9.70;72.30;;;;;;5052365;28;20496;-65
2021/03/16 06:18:23;;;;;;;22.50;3.95;;;9.80;72.10;;;;;;5068599;28;20037;-65
2021/03/16 06:21:00;;;;;;;10.00;2.20;;;9.90;72.00;;;;;;5054042;28;20033;-65
2021/03/16 06:23:33;;;;;;;15.55;3.40;;;9.90;71.70;;;;;;5042356;28;20048;-65
2021/03/16 06:26:01;;;;;;;24.08;5.10;;;10.00;71.80;;;;;;5054986;28;20028;-65
2021/03/16 06:28:31;;;;;;;14.23;2.80;;;10.00;71.60;;;;;;5053108;28;20044;-66
2021/03/16 06:30:57;;;;;;;10.57;2.45;;;10.00;71.70;;;;;;5066468;28;20063;-66
2021/03/16 06:33:26;;;;;;;13.23;3.05;;;10.00;71.70;;;;;;5051730;28;20032;-66
2021/03/16 06:36:02;;;;;;;20.60;4.10;;;10.00;71.70;;;;;;5049559;28;20044;-65
2021/03/16 06:38:29;;;;;;;18.23;3.83;;;9.90;71.80;;;;;;5045576;28;20080;-66
2021/03/16 06:41:06;;;;;;;13.77;3.63;;;9.90;71.90;;;;;;5050479;28;20059;-66
2021/03/16 06:43:32;;;;;;;14.32;3.92;;;10.00;72.10;;;;;;5046894;28;20037;-65
2021/03/16 06:45:57;;;;;;;13.32;3.35;;;10.10;72.30;;;;;;5049698;28;20498;-65
2021/03/16 06:48:25;;;;;;;17.48;2.55;;;10.10;72.60;;;;;;5049175;28;20037;-65
2021/03/16 06:50:52;;;;;;;17.85;2.78;;;10.10;72.60;;;;;;5046448;28;20037;-66
2021/03/16 06:53:20;;;;;;;17.40;4.68;;;10.00;73.00;;;;;;5049586;28;20495;-66
2021/03/16 06:55:56;;;;;;;15.63;3.65;;;10.00;73.50;;;;;;5060393;28;20025;-65
2021/03/16 06:58:25;;;;;;;16.42;4.07;;;10.00;73.60;;;;;;5054898;28;20036;-66
2021/03/16 07:01:13;;;;;;;14.82;3.90;;;9.90;74.20;;;;;;5064035;28;20491;-65
2021/03/16 07:03:39;;;;;;;12.45;3.08;;;10.10;73.50;;;;;;5037063;28;20056;-64
2021/03/16 07:06:16;;;;;;;8.90;2.15;;;10.10;73.60;;;;;;5059443;28;20150;-65
2021/03/16 07:08:44;;;;;;;10.77;3.20;;;10.10;73.80;;;;;;5081319;28;20490;-64
2021/03/16 07:11:12;;;;;;;12.45;2.65;;;10.10;73.70;;;;;;5048498;28;20086;-65
2021/03/16 07:13:39;;;;;;;11.50;3.15;;;10.10;74.00;;;;;;5051291;28;20028;-65
2021/03/16 07:16:05;;;;;;;11.55;2.47;;;10.10;73.80;;;;;;5051971;28;20024;-65
2021/03/16 07:18:51;;;;;;;10.93;2.42;;;10.30;73.80;;;;;;5056449;28;20111;-65
2021/03/16 07:21:25;;;;;;;11.88;3.10;;;10.50;73.40;;;;;;5044220;28;20176;-65
2021/03/16 07:24:05;;;;;;;16.00;3.35;;;10.60;73.40;;;;;;5049911;28;20754;-65
2021/03/16 07:26:31;;;;;;;15.25;2.92;;;10.80;73.40;;;;;;5056799;28;20500;-65
2021/03/16 07:28:57;;;;;;;11.23;2.88;;;11.30;73.50;;;;;;5029472;28;20639;-65
2021/03/16 07:31:23;;;;;;;11.93;3.58;;;12.10;71.30;;;;;;5032578;28;20221;-65
2021/03/16 07:33:50;;;;;;;15.57;3.03;;;12.90;66.90;;;;;;5044124;28;20036;-70
2021/03/16 07:36:16;;;;;;;17.75;3.67;;;12.90;65.00;;;;;;5054409;28;20639;-64
2021/03/16 07:38:42;;;;;;;14.88;3.35;;;12.60;64.80;;;;;;5039590;28;20040;-64
2021/03/16 07:41:08;;;;;;;14.63;3.15;;;12.30;65.20;;;;;;5046703;28;20033;-65
2021/03/16 07:43:39;;;;;;;11.07;3.10;;;12.00;66.10;;;;;;5045151;28;20033;-65
2021/03/16 07:46:23;;;;;;;13.43;2.28;;;11.70;66.60;;;;;;5041192;28;20045;-65
2021/03/16 07:48:52;;;;;;;;;;;11.50;67.50;;;;;;5045463;28;20114;-65
2021/03/16 07:51:20;;;;;;;11.13;2.42;;;11.40;67.90;;;;;;5034060;28;20366;-65
2021/03/16 07:53:56;;;;;;;18.15;3.17;;;11.30;67.90;;;;;;5045230;28;20055;-65
2021/03/16 07:56:26;;;;;;;16.65;3.85;;;11.10;68.50;;;;;;5064007;28;20439;-65
2021/03/16 07:58:52;;;;;;;11.00;2.70;;;11.00;68.50;;;;;;5039032;28;20114;-66
2021/03/16 08:01:18;;;;;;;15.68;3.60;;;11.00;69.20;;;;;;5045668;28;20094;-65
2021/03/16 08:03:44;;;;;;;12.00;3.55;;;10.90;69.00;;;;;;5047005;28;20131;-65
2021/03/16 08:06:23;;;;;;;14.52;4.10;;;10.90;69.50;;;;;;5044769;28;20408;-65
2021/03/16 08:08:49;;;;;;;18.60;3.67;;;10.90;69.40;;;;;;5047057;28;20044;-66
2021/03/16 08:11:15;;;;;;;14.20;3.65;;;10.80;69.60;;;;;;5045715;28;20110;-65
2021/03/16 08:13:52;;;;;;;13.98;3.38;;;10.80;69.60;;;;;;5061827;28;20025;-65
2021/03/16 08:16:17;;;;;;;12.90;3.67;;;10.80;70.10;;;;;;5044958;28;20033;-65
2021/03/16 08:18:43;;;;;;;14.82;3.75;;;10.80;70.10;;;;;;5045964;28;20044;-66
2021/03/16 08:21:13;;;;;;;9.55;3.45;;;10.90;70.10;;;;;;5041899;28;20040;-65
2021/03/16 08:23:40;;;;;;;12.50;2.70;;;10.90;69.00;;;;;;5046573;28;20029;-66
2021/03/16 08:26:07;;;;;;;8.48;2.30;;;10.90;69.70;;;;;;5044390;28;20017;-66
2021/03/16 08:28:35;;;;;;;12.55;3.42;;;11.20;69.40;;;;;;5045250;28;20060;-66
2021/03/16 08:31:01;;;;;;;14.02;3.80;;;11.40;67.50;;;;;;5041402;28;20526;-66
2021/03/16 08:33:28;;;;;;;14.30;2.83;;;11.40;66.10;;;;;;5050033;28;20150;-65
2021/03/16 08:35:56;;;;;;;13.88;3.45;;;11.20;66.30;;;;;;5037817;28;20025;-66
2021/03/16 08:38:26;;;;;;;14.65;2.42;;;11.00;67.40;;;;;;5044833;28;20032;-66
2021/03/16 08:41:09;;;;;;;9.40;2.63;;;10.90;68.10;;;;;;5049739;28;20028;-66
2021/03/16 08:43:35;;;;;;;9.85;2.83;;;11.10;68.30;;;;;;5050049;28;20107;-66
2021/03/16 08:46:01;;;;;;;10.60;2.97;;;11.20;68.30;;;;;;5046265;28;20112;-65
2021/03/16 08:48:28;;;;;;;13.32;3.25;;;11.50;66.30;;;;;;5041448;28;20039;-65
2021/03/16 08:50:54;;;;;;;15.80;3.05;;;11.50;65.20;;;;;;5044421;28;20033;-65
2021/03/16 08:53:19;;;;;;;10.75;2.22;;;11.60;65.80;;;;;;5047552;28;20040;-65
2021/03/16 08:55:53;;;;;;;17.05;3.47;;;11.60;66.30;;;;;;5043111;28;20036;-66
2021/03/16 08:58:19;;;;;;;;;;;11.50;65.90;;;;;;5045024;28;20025;-66
2021/03/16 09:00:45;;;;;;;13.50;3.08;;;11.40;64.30;;;;;;5077156;28;19924;-66
2021/03/16 09:03:12;;;;;;;14.55;2.47;;;11.40;65.30;;;;;;5052360;28;20043;-66
2021/03/16 09:05:38;;;;;;;10.82;2.60;;;11.50;65.90;;;;;;5046035;28;20037;-65
2021/03/16 09:08:04;;;;;;;10.40;2.75;;;11.60;65.10;;;;;;5049711;28;20435;-66
2021/03/16 09:10:31;;;;;;;12.55;3.47;;;11.80;63.60;;;;;;5045316;28;20044;-68
2021/03/16 09:12:57;;;;;;;8.52;2.47;;;11.90;63.60;;;;;;5050989;28;20041;-68
2021/03/16 09:15:26;;;;;;;11.07;3.00;;;12.00;62.60;;;;;;5047732;28;20808;-68
2021/03/16 09:17:53;;;;;;;16.35;2.95;;;12.50;62.00;;;;;;5047170;28;20033;-67
2021/03/16 09:20:28;;;;;;;9.43;2.42;;;13.00;58.90;;;;;;5062517;28;20071;-67
2021/03/16 09:22:57;;;;;;;10.10;2.75;;;12.80;58.80;;;;;;5044674;28;20025;-68
2021/03/16 09:25:27;;;;;;;8.13;2.17;;;12.90;60.30;;;;;;5038937;28;20423;-67
2021/03/16 09:28:00;;;;;;;13.88;3.67;;;13.00;60.40;;;;;;5050193;28;20040;-67
2021/03/16 09:30:27;;;;;;;10.80;2.03;;;13.10;59.20;;;;;;5047418;28;20491;-68
2021/03/16 09:32:52;;;;;;;9.43;2.60;;;13.00;59.20;;;;;;5049019;28;20149;-68
2021/03/16 09:35:20;;;;;;;11.02;2.55;;;12.80;59.30;;;;;;5048689;28;20065;-66
2021/03/16 09:37:50;;;;;;;7.20;2.22;;;12.60;59.20;;;;;;5047407;28;20037;-68
2021/03/16 09:40:18;;;;;;;10.32;2.63;;;12.40;59.60;;;;;;5043240;28;20045;-68
2021/03/16 09:42:48;;;;;;;6.28;2.13;;;12.20;59.90;;;;;;5042628;28;20033;-68
2021/03/16 09:45:18;;;;;;;8.57;1.73;;;12.10;60.90;;;;;;5044889;28;20025;-68
2021/03/16 09:47:45;;;;;;;9.63;2.78;;;11.90;60.80;;;;;;5043492;28;20116;-67
2021/03/16 09:50:15;;;;;;;10.80;2.63;;;11.90;61.70;;;;;;5046793;28;20150;-67
2021/03/16 09:52:42;;;;;;;9.95;2.08;;;11.90;61.50;;;;;;5045777;28;20116;-69
2021/03/16 09:55:08;;;;;;;9.05;2.42;;;11.80;61.30;;;;;;5044902;28;20045;-67
2021/03/16 09:57:37;;;;;;;13.65;2.53;;;11.70;62.30;;;;;;5036380;28;20033;-67
2021/03/16 10:00:09;;;;;;;8.27;2.40;;;11.70;62.40;;;;;;5047522;28;20075;-67
2021/03/16 10:02:40;;;;;;;23.45;2.67;;;11.60;62.30;;;;;;5045575;28;20029;-67
2021/03/16 10:05:14;;;;;;;16.25;3.13;;;11.60;62.40;;;;;;5041141;28;20037;-67
2021/03/16 10:07:40;;;;;;;9.95;2.38;;;11.60;62.30;;;;;;5047905;28;20028;-67
2021/03/16 10:10:27;;;;;;;10.80;2.88;;;11.60;62.70;;;;;;5048984;28;20159;-68
2021/03/16 10:13:15;;;;;;;7.95;2.38;;;11.60;61.30;;;;;;5039981;28;20083;-67
2021/03/16 10:15:42;;;;;;;10.90;2.22;;;11.70;61.60;;;;;;5036755;28;20033;-67
2021/03/16 10:18:13;;;;;;;8.95;2.45;;;11.90;61.20;;;;;;5044182;28;20033;-68
2021/03/16 10:20:43;;;;;;;10.27;2.60;;;12.10;61.40;;;;;;5058330;28;20393;-64
2021/03/16 10:23:11;;;;;;;9.02;1.70;;;12.20;61.00;;;;;;5039893;28;20410;-66
2021/03/16 10:25:37;;;;;;;8.63;2.53;;;12.40;60.40;;;;;;5045981;28;20090;-69
2021/03/16 10:28:09;;;;;;;11.98;2.00;;;12.60;59.80;;;;;;5061907;28;20033;-69
2021/03/16 10:30:43;;;;;;;10.18;2.42;;;12.70;59.90;;;;;;5043024;28;20036;-65
2021/03/16 10:33:11;;;;;;;6.65;1.90;;;12.90;58.10;;;;;;5045411;28;20036;-66
2021/03/16 10:35:38;;;;;;;6.82;1.90;;;13.00;57.20;;;;;;5058470;28;20043;-68
2021/03/16 10:38:05;;;;;;;8.27;2.65;;;12.90;57.30;;;;;;5044780;28;20033;-67
2021/03/16 10:40:32;;;;;;;7.70;2.63;;;12.90;57.30;;;;;;5049698;28;20036;-68
2021/03/16 10:42:58;;;;;;;9.23;2.28;;;12.80;56.80;;;;;;5037191;28;20038;-67
2021/03/16 10:45:25;;;;;;;13.63;2.30;;;12.80;56.90;;;;;;5058531;28;20049;-68
2021/03/16 10:47:51;;;;;;;9.93;2.20;;;12.90;56.40;;;;;;5048025;28;20174;-67
2021/03/16 10:50:17;;;;;;;9.07;2.17;;;12.90;56.30;;;;;;5046301;28;20132;-68
2021/03/16 10:52:42;;;;;;;8.35;2.83;;;12.90;56.00;;;;;;5042715;28;20021;-68
2021/03/16 10:55:09;;;;;;;6.43;1.17;;;12.80;56.30;;;;;;5041964;28;20072;-66
2021/03/16 10:57:35;;;;;;;9.15;2.42;;;12.80;56.40;;;;;;5047273;28;20037;-67
2021/03/16 11:00:01;;;;;;;10.43;2.17;;;12.90;56.80;;;;;;5046115;28;20057;-68
2021/03/16 11:02:27;;;;;;;7.07;1.90;;;13.00;56.30;;;;;;5061833;28;20115;-69
2021/03/16 11:04:53;;;;;;;7.68;2.03;;;13.10;55.30;;;;;;5046808;28;20458;-68
2021/03/16 11:07:18;;;;;;;9.10;1.55;;;13.20;54.90;;;;;;5044209;28;20367;-66
2021/03/16 11:09:44;;;;;;;9.85;2.63;;;13.20;54.00;;;;;;5043589;28;20040;-67
2021/03/16 11:12:10;;;;;;;10.32;2.03;;;13.50;54.70;;;;;;5046076;28;20025;-68
2021/03/16 11:14:36;;;;;;;8.68;2.47;;;13.70;53.60;;;;;;5043880;28;20025;-68
2021/03/16 11:17:01;;;;;;;9.60;1.88;;;13.80;53.60;;;;;;5048525;28;20328;-67
2021/03/16 11:19:27;;;;;;;12.10;3.08;;;14.80;53.80;;;;;;5045592;28;20124;-68
2021/03/16 11:21:52;;;;;;;7.70;1.67;;;13.70;52.70;;;;;;5061335;28;20335;-69
2021/03/16 11:24:19;;;;;;;12.35;2.28;;;13.60;52.20;;;;;;5048530;28;20037;-68
2021/03/16 11:26:45;;;;;;;9.73;1.67;;;13.30;52.40;;;;;;5046288;28;20600;-68
2021/03/16 11:29:11;;;;;;;7.63;2.10;;;13.20;52.70;;;;;;5050749;28;20041;-69
2021/03/16 11:31:37;;;;;;;9.90;1.98;;;13.20;53.10;;;;;;5047418;28;20101;-67
2021/03/16 11:34:03;;;;;;;8.50;2.03;;;13.10;53.80;;;;;;5036242;28;20260;-70
2021/03/16 11:36:29;;;;;;;8.60;1.85;;;13.10;54.50;;;;;;5061368;28;20134;-65
2021/03/16 11:38:54;;;;;;;12.82;2.45;;;13.20;54.90;;;;;;5045013;28;20455;-65
2021/03/16 11:41:20;;;;;;;9.20;2.33;;;13.30;53.90;;;;;;5049175;28;20032;-66
2021/03/16 11:43:46;;;;;;;6.78;1.77;;;13.40;53.80;;;;;;5060176;28;20028;-66
2021/03/16 11:46:12;;;;;;;5.20;1.80;;;13.40;53.20;;;;;;5042827;28;20056;-66
2021/03/16 11:48:37;;;;;;;11.60;2.22;;;13.40;53.90;;;;;;5053738;28;20505;-64
2021/03/16 11:51:04;;;;;;;8.73;1.80;;;13.40;53.90;;;;;;5049308;28;20090;-65
2021/03/16 11:53:30;;;;;;;15.13;2.60;;;13.40;53.90;;;;;;5048131;28;20033;-65
2021/03/16 11:55:57;;;;;;;9.80;1.77;;;13.50;53.50;;;;;;5047965;28;20379;-65
2021/03/16 11:58:23;;;;;;;6.00;1.30;;;13.60;53.60;;;;;;5048507;28;20051;-66
2021/03/16 12:00:49;;;;;;;11.52;2.00;;;13.70;53.20;;;;;;5045369;28;20378;-66
2021/03/16 12:03:14;;;;;;;7.65;2.05;;;13.50;53.60;;;;;;5045680;28;20395;-66
2021/03/16 12:05:40;;;;;;;12.57;2.03;;;13.20;53.80;;;;;;5040869;28;20392;-66
2021/03/16 12:08:06;;;;;;;12.13;2.58;;;13.00;54.50;;;;;;5046380;28;20119;-65
2021/03/16 12:10:32;;;;;;;10.45;2.13;;;12.90;54.80;;;;;;5047772;28;20033;-65
2021/03/16 12:12:57;;;;;;;6.90;1.75;;;13.00;54.70;;;;;;5040665;28;20389;-66
2021/03/16 12:15:23;;;;;;;8.05;1.88;;;13.00;54.20;;;;;;5048117;28;20084;-69
2021/03/16 12:17:49;;;;;;;15.88;2.75;;;13.00;54.80;;;;;;5051177;28;20135;-68
2021/03/16 12:20:15;;;;;;;15.90;2.25;;;12.90;55.50;;;;;;5047539;28;20124;-68
2021/03/16 12:22:41;;;;;;;7.25;2.55;;;12.90;55.70;;;;;;5047254;28;20025;-68
2021/03/16 12:25:08;;;;;;;10.82;2.55;;;13.00;55.20;;;;;;5047782;28;20048;-67
2021/03/16 12:27:34;;;;;;;7.72;2.22;;;13.00;54.70;;;;;;5049060;28;20033;-68
2021/03/16 12:30:01;;;;;;;6.57;1.80;;;12.90;55.30;;;;;;5048871;28;20494;-68
2021/03/16 12:32:27;;;;;;;6.03;1.90;;;13.10;55.40;;;;;;5048478;28;20116;-68
2021/03/16 12:34:53;;;;;;;7.22;1.63;;;13.00;55.70;;;;;;5047328;28;20522;-67
2021/03/16 12:37:19;;;;;;;9.18;2.00;;;13.20;52.50;;;;;;5048418;28;20037;-68
2021/03/16 12:39:45;;;;;;;11.05;2.03;;;13.20;52.80;;;;;;5048803;28;20045;-68
2021/03/16 12:42:12;;;;;;;5.43;1.67;;;13.40;53.50;;;;;;5043366;28;20086;-69
2021/03/16 12:44:37;;;;;;;9.40;2.42;;;13.60;52.30;;;;;;5046249;28;20155;-69
2021/03/16 12:47:04;;;;;;;5.90;1.73;;;13.60;51.90;;;;;;5048205;28;20132;-68